Terminal Aerodrome Forecast
Issued by NWS Pueblo, CO

Home | Current Version | Previous Version | Text Only | Print | Product List | Glossary On
Versions: 1 2 3 4 5 6 7 8 9 10 11 12 13 14 15 16 17
000
FTUS45 KPUB 031120
TAFALS
TAF
KALS 031120Z 0312/0412 VRB03KT P6SM BKN005 OVC011
      TEMPO 0312/0315 1SM BR OVC005
     FM031600 VRB04KT P6SM FEW010
     FM032000 35005KT P6SM FEW050
     FM040400 VRB03KT P6SM SKC=

USA.gov is the U.S. government's official web portal to all federal, state and local government web resources and services.